Tiempo atmosférico en la estación meteorológica de Zarza La Mayor, Cáceres (336 m.)



Fecha
DESCASC
Temp. máxima en grados centígrados (hora)
DESCASC
Temp. mínima en grados centígrados (hora)
DESCASC
Temp. media en grados centígrados
DESCASC
Racha de viento máxima en m/sg (hora)
DESCASC
Velocidad máxima media en intervalos de 10 minutos(hora)
DESCASC
Precipitaciones diarias en mm
DESCASC
Precipitaciones de 00:00 a 06:00 en mm
DESCASC
Precipitaciones de 06:00 a 12:00 en mm
DESCASC
Precipitaciones de 12:00 a 18:00 en mm
DESCASC
Precipitaciones de 18:00 a 24:00 en mm
DESCASC
27-01-2020 12 (17:10) 6.5 (03:10) 9.3 8.33 (17:20) 5.83 (17:20) 1.6 0 0 0.4 1.2
26-01-2020 13.7 (16:10) 0.8 (09:10) 7.2 5.83 (15:50) 4.17 (17:10) 0.2 0 0 0.2 0
25-01-2020 12.2 (15:40) 5.9 (00:00) 9 7.78 (05:40) 4.72 (04:10) 9.6 4 3.2 2.2 0.2
24-01-2020 11.1 (14:00) 7.7 (00:00) 9.4 6.67 (13:10) 4.44 (12:50) 1.2 0 0 0.2 1
23-01-2020 9 (00:00) 6.3 (00:00) 7.7 9.17 (15:10) 5.56 (15:00) 8.8 3.4 4.8 0.6 0
22-01-2020 10.4 (17:00) 5.7 (00:00) 8 13.89 (12:40) 8.06 (11:30) 0 0 0 0 0
21-01-2020 10.9 (14:50) 2.1 (00:00) 6.5 13.33 (16:10) 8.61 (11:50) 0 0 0 0 0
20-01-2020 7.7 (16:20) 4 (00:00) 5.8 20.28 (02:10) 13.06 (02:00) 0 0 0 0 0
19-01-2020 12.3 (14:10) 5.1 (00:00) 8.7 19.72 (23:59) 12.78 (23:59) 0 0 0 0 0
18-01-2020 13.4 (17:50) 8.2 (00:00) 10.8 11.11 (19:50) 6.67 (19:40) 11 3.4 7.2 0.4 0
17-01-2020 14.6 (15:20) 7.7 (00:00) 11.2 5 (08:30) 3.89 (09:10) 0.2 0 0.2 0 0
16-01-2020 14.4 (16:10) 9 (00:00) 11.7 10 (14:20) 7.22 (15:10) 1.8 0 0 0.2 1.6
15-01-2020 13 (16:10) 8.7 (00:00) 10.8 12.5 (01:20) 7.5 (01:30) 3.8 0 1.8 2 0
14-01-2020 9.9 (16:30) 2.9 (00:00) 6.4 11.39 (23:30) 6.94 (23:30) 0.2 0 0 0 0.2
13-01-2020 11.6 (16:50) 1 (00:00) 6.3 4.17 (15:40) 2.78 (15:40) 0 0 0 0 0
12-01-2020 13.1 (17:10) -0.4 (00:00) 6.4 3.06 (14:30) 1.67 (14:30) 0 0 0 0 0
11-01-2020 12.5 (15:20) 1.5 (00:00) 7 5.83 (14:30) 3.61 (14:30) 0 0 0 0 0
10-01-2020 12.9 (15:00) 4.4 (00:00) 8.6 9.17 (13:40) 6.11 (13:40) 0 0 0 0 0
09-01-2020 14.8 (16:40) 1.3 (00:00) 8.1 6.11 (23:10) 3.33 (23:59) 0 0 0 0 0
08-01-2020 13 (17:10) -1.4 (-00:0) 5.8 3.33 (12:00) 1.94 (12:00) 0 0 0 0 0
07-01-2020 14.8 (17:00) 1.1 (00:00) 8 3.06 (19:20) 2.5 (18:40) 0 0 0 0 0
06-01-2020 13.1 (16:10) 0.1 (00:00) 6.6 3.89 (12:30) 2.22 (12:20) 0 0 0 0 0
05-01-2020 13.9 (16:00) 2 (00:00) 7.9 4.72 (15:00) 2.78 (12:20) 0 0 0 0 0
04-01-2020 12.1 (15:50) 2.8 (00:00) 7.5 6.67 (11:30) 4.44 (14:10) 0 0 0 0 0
03-01-2020 14.1 (15:40) 3.5 (00:00) 8.8 5.83 (22:20) 3.33 (17:10) 0 0 0 0 0
02-01-2020 6.2 (16:10) 1 (00:00) 3.6 2.78 (09:10) 2.22 (04:50) 0.2 0 0.2 0 0
01-01-2020 13.3 (17:20) 2.1 (00:00) 7.7 2.78 (11:20) 1.94 (06:50) 0 0 0 0 0
31-12-2019 13 (15:50) 2.4 (00:00) 7.7 -- (--) -- (--) 0 0 0 0 0
30-12-2019 14.7 (15:50) 2.8 (00:00) 8.7 3.89 (09:30) 2.5 (08:50) 0 0 0 0 0

Gráficas

Temp. máximas Temp. mínimas Temp. medias Precipitaciones Rachas de viento máximas Velocidades máximas media en intervalos de 10 minutos

Datos horarios

Fecha y hora oficial Temperatura (ºC) Velocidad del viento (km/h) Dirección del viento Racha (km/h) Dirección de racha Precipitación (mm) Presión (hPa) Tendencia (hPa) Humedad (%)
2020-01-28 23:00:00 12.4 12 Sur 17 Sur 0 -- -- 93
2020-01-28 22:00:00 12.2 10 Sudoeste 19 Sudoeste 0 -- -- 93
2020-01-28 21:00:00 12.3 11 Sudoeste 17 Sudoeste 0 -- -- 91
2020-01-28 20:00:00 12.5 8 Sur 19 Sudoeste 0 -- -- 91
2020-01-28 19:00:00 12.9 17 Sudoeste 28 Sudoeste 0 -- -- 90
2020-01-28 18:00:00 13.3 18 Sudoeste 32 Sudoeste 0 -- -- 90
2020-01-28 17:00:00 13.2 22 Sudoeste 33 Sudoeste 0 -- -- 92
2020-01-28 16:00:00 13.7 21 Sudoeste 43 Sudoeste 0 -- -- 89
2020-01-28 15:00:00 14 24 Sudoeste 42 Sudoeste 0 -- -- 87
2020-01-28 14:00:00 13.7 22 Sudoeste 37 Sudoeste 0 -- -- 90
2020-01-28 13:00:00 13.4 18 Sudoeste 28 Sur 0 -- -- 95
2020-01-28 12:00:00 12.7 19 Sudoeste 30 Sudoeste 0 -- -- 95
2020-01-28 11:00:00 12.5 19 Sudoeste 30 Sudoeste 0 -- -- 94
2020-01-28 10:00:00 12 15 Sudoeste 29 Sudoeste 0 -- -- 96
2020-01-28 09:00:00 11.6 18 Sudoeste 27 Sudoeste 0 -- -- 96
2020-01-28 08:00:00 11.7 19 Sudoeste 26 Sudoeste 0 -- -- 97
2020-01-28 07:00:00 11.7 17 Sudoeste 26 Sudoeste 0 -- -- 96
2020-01-28 06:00:00 11.9 16 Sudoeste 23 Sudoeste 0 -- -- 97
2020-01-28 05:00:00 11.9 12 Sudoeste 22 Sudoeste 0 -- -- 97
2020-01-28 04:00:00 11.8 12 Sudoeste 25 Sudoeste 0 -- -- 97
2020-01-28 03:00:00 11.7 12 Sudoeste 25 Sur 0 -- -- 96
2020-01-28 02:00:00 11.5 18 Sudoeste 27 Sudoeste 0 -- -- 96
2020-01-28 01:00:00 11.7 15 Sudoeste 27 Sudoeste 0 -- -- 97
2020-01-28 00:00:00 11.8 16 Sudoeste 25 Sudoeste 0 -- -- 97
2020-01-27 23:00:00 11.8 15 Sudoeste 26 Sudoeste 0 -- -- 97
2020-01-27 22:00:00 11.7 14 Sudoeste 24 Sur 0.4 -- -- 97
2020-01-27 21:00:00 11.6 13 Sur 24 Sur 0.4 -- -- 97
2020-01-27 20:00:00 11.5 10 Sur 18 Sur 0.2 -- -- 96
2020-01-27 19:00:00 11.4 10 Sur 25 Sudoeste 0.2 -- -- 96
2020-01-27 18:00:00 11.3 11 Sudeste 30 Sudoeste 0.2 -- -- 94
2020-01-27 17:00:00 11.8 7 Sur 20 Sur 0 -- -- 86
2020-01-27 16:00:00 11.3 11 Sur 24 Sudeste 0.2 -- -- 90
2020-01-27 15:00:00 11.4 13 Sur 21 Sur 0 -- -- 87
2020-01-27 14:00:00 11.1 12 Sur 27 Sur 0 -- -- 89
2020-01-27 13:00:00 10.3 17 Sur 28 Sudeste 0 -- -- 90
2020-01-27 12:00:00 9.8 18 Sur 28 Sur 0 -- -- 92
2020-01-27 11:00:00 8.9 18 Sur 26 Sur 0 -- -- 94
2020-01-27 10:00:00 8.4 14 Sur 21 Sur 0 -- -- 96
2020-01-27 09:00:00 8 12 Sur 19 Sur 0 -- -- 97
2020-01-27 08:00:00 7.5 10 Sudeste 17 Sudeste 0 -- -- 97
2020-01-27 07:00:00 7.5 12 Sudeste 18 Sudeste 0 -- -- 97
2020-01-27 06:00:00 7.4 9 Sudeste 15 Sudeste 0 -- -- 97
2020-01-27 05:00:00 7.5 7 Sudeste 13 Sudeste 0 -- -- 96
2020-01-27 04:00:00 7.4 9 Sur 10 Sur 0 -- -- 97
2020-01-27 03:00:00 6.6 4 Este 9 Sudeste 0 -- -- 96
2020-01-27 02:00:00 6.8 2 Este 9 Sudeste 0 -- -- 96
2020-01-27 01:00:00 7.1 6 Sudeste 9 Sur 0 -- -- 94
2020-01-27 00:00:00 7.7 9 Sur 14 Sur 0 -- -- 92
2020-01-26 23:00:00 8 10 Sur 12 Sur 0 -- -- 91
2020-01-26 22:00:00 8.6 5 Sur 9 Sudoeste 0 -- -- 87
2020-01-26 21:00:00 9.3 2 Sur 9 Sur 0 -- -- 84
2020-01-26 20:00:00 9.9 9 Sur 12 Sudoeste 0 -- -- 82
2020-01-26 19:00:00 10.5 11 Sudoeste 18 Sudoeste 0 -- -- 78
2020-01-26 18:00:00 11.4 14 Sudoeste 21 Sudoeste 0 -- -- 72
2020-01-26 17:00:00 13 12 Sudoeste 21 Sudoeste 0 -- -- 67
2020-01-26 16:00:00 13.6 10 Sudoeste 21 Sudoeste 0.2 -- -- 64
2020-01-26 15:00:00 12.7 7 Sur 17 Sudoeste 0 -- -- 74
2020-01-26 14:00:00 11.1 6 Sudoeste 11 Sur 0 -- -- 80
2020-01-26 13:00:00 9.5 5 Sur 10 Sudoeste 0 -- -- 84
2020-01-26 12:00:00 7.1 4 Sur 6 Sur 0 -- -- 97
2020-01-26 11:00:00 4.4 0 Calma 4 Sudoeste 0 -- -- 100
2020-01-26 10:00:00 1.7 0 Calma 6 Oeste 0 -- -- 99
2020-01-26 09:00:00 0.9 2 Norte 4 Oeste 0 -- -- 98
2020-01-26 08:00:00 2.2 2 Sudoeste 11 Sur 0 -- -- 98
2020-01-26 07:00:00 3.1 0 Calma 6 Sudoeste 0 -- -- 98
2020-01-26 06:00:00 2.4 4 Sudeste 7 Oeste 0 -- -- 98
2020-01-26 05:00:00 3.4 5 Sudoeste 9 Oeste 0 -- -- 97
2020-01-26 04:00:00 4.4 4 Sudoeste 6 Sudoeste 0 -- -- 97
2020-01-26 03:00:00 4.7 2 Oeste 5 Oeste 0 -- -- 97
2020-01-26 02:00:00 5.6 2 Noroeste 5 Sudoeste 0 -- -- 97
2020-01-26 01:00:00 5.8 2 Sudoeste 3 Sudoeste 0 -- -- 97
2020-01-26 00:00:00 5.9 2 Oeste 5 Noroeste 0 -- -- 97
2020-01-25 23:00:00 7.3 3 Oeste 5 Oeste 0 -- -- 95
2020-01-25 22:00:00 7.8 3 Oeste 4 Oeste 0 -- -- 95
2020-01-25 21:00:00 8.6 0 Calma -- -- 0 -- -- 93
2020-01-25 20:00:00 9.1 0 Calma 4 Nordeste 0.2 -- -- 93
2020-01-25 19:00:00 9.5 3 Nordeste 5 Norte 0 -- -- 93
2020-01-25 18:00:00 9.9 3 Norte 9 Oeste 0 -- -- 92
2020-01-25 17:00:00 10.9 4 Noroeste 11 Sudoeste 0 -- -- 84
2020-01-25 16:00:00 11.7 7 Sudoeste 14 Sudoeste 0 -- -- 84
2020-01-25 15:00:00 10.7 4 Oeste 8 Oeste 0 -- -- 90
2020-01-25 14:00:00 10.1 2 Sur 5 Sudoeste 0.6 -- -- 96
2020-01-25 13:00:00 9.4 0 Calma 4 Norte 1.6 -- -- 98
2020-01-25 12:00:00 8.5 5 Norte 8 Noroeste 1 -- -- 98
2020-01-25 11:00:00 8.3 0 Calma 5 Nordeste 0.2 -- -- 98
2020-01-25 10:00:00 7.9 3 Norte 10 Nordeste 0 -- -- 98
2020-01-25 09:00:00 7.5 6 Nordeste 10 Nordeste 0.4 -- -- 98
2020-01-25 08:00:00 7.3 5 Nordeste 17 Nordeste 0.4 -- -- 97
2020-01-25 07:00:00 7.2 9 Nordeste 25 Este 1.2 -- -- 97
2020-01-25 06:00:00 7.5 14 Nordeste 28 Nordeste 0.6 -- -- 96
2020-01-25 05:00:00 7.4 14 Nordeste 26 Nordeste 0.2 -- -- 95
2020-01-25 04:00:00 7.7 14 Nordeste 27 Nordeste 0.8 -- -- 96
2020-01-25 03:00:00 8 11 Nordeste 22 Nordeste 0.8 -- -- 96
2020-01-25 02:00:00 8.1 11 Nordeste 19 Nordeste 0.4 -- -- 96
2020-01-25 01:00:00 8.1 8 Nordeste 13 Nordeste 1.2 -- -- 95
2020-01-25 00:00:00 8.3 9 Este 15 Nordeste 1 -- -- 93
2020-01-24 23:00:00 9 10 Nordeste 19 Nordeste 0 -- -- 88
2020-01-24 22:00:00 9 12 Nordeste 21 Este 0 -- -- 87
2020-01-24 21:00:00 8.9 11 Nordeste 18 Este 0 -- -- 87
2020-01-24 20:00:00 9 10 Nordeste 18 Nordeste 0 -- -- 87
2020-01-24 19:00:00 9.4 10 Nordeste 16 Nordeste 0 -- -- 88
2020-01-24 18:00:00 9.9 8 Nordeste 16 Este 0 -- -- 87
2020-01-24 17:00:00 10.3 11 Nordeste 20 Nordeste 0.2 -- -- 86
2020-01-24 16:00:00 10.7 12 Nordeste 21 Nordeste 0 -- -- 83
2020-01-24 15:00:00 10.7 10 Nordeste 23 Este 0 -- -- 84
2020-01-24 14:00:00 11.1 14 Este 24 Nordeste 0 -- -- 84
2020-01-24 13:00:00 9.9 13 Este 23 Nordeste 0 -- -- 88
2020-01-24 12:00:00 9 12 Este 19 Este 0 -- -- 90
2020-01-24 11:00:00 8.5 5 Nordeste 17 Nordeste 0 -- -- 92
2020-01-24 10:00:00 7.9 10 Nordeste 19 Nordeste 0 -- -- 93
2020-01-24 09:00:00 7.7 8 Este 17 Este 0 -- -- 93
2020-01-24 08:00:00 7.9 9 Este 19 Este 0 -- -- 95
2020-01-24 07:00:00 7.9 12 Este 19 Este 0 -- -- 95
2020-01-24 06:00:00 8 10 Este 17 Este 0 -- -- 95
2020-01-24 05:00:00 8.1 9 Este 15 Este 0 -- -- 95
2020-01-24 04:00:00 8.1 8 Este 15 Este 0 -- -- 95
2020-01-24 03:00:00 8.2 11 Este 21 Este 0 -- -- 96
2020-01-24 02:00:00 8.2 6 Este 17 Este 0 -- -- 95
2020-01-24 01:00:00 8.3 12 Este 23 Este 0 -- -- 94
2020-01-24 00:00:00 8.2 15 Este 23 Este 0 -- -- 93
2020-01-23 23:00:00 8.1 10 Este 20 Este 0 -- -- 94
2020-01-23 22:00:00 7.9 9 Este 18 Este 0 -- -- 94
2020-01-23 21:00:00 8.1 9 Este 22 Este 0 -- -- 93
2020-01-23 20:00:00 8 15 Este 24 Este 0 -- -- 94
2020-01-23 19:00:00 7.9 13 Este 23 Este 0 -- -- 95
2020-01-23 18:00:00 7.5 12 Este 28 Nordeste 0 -- -- 94
2020-01-23 17:00:00 7.4 18 Nordeste 31 Nordeste 0 -- -- 94
2020-01-23 16:00:00 7.7 19 Nordeste 33 Nordeste 0 -- -- 93
2020-01-23 15:00:00 7.1 20 Nordeste 33 Nordeste 0.2 -- -- 95
2020-01-23 14:00:00 7.1 14 Nordeste 30 Nordeste 0.4 -- -- 95
2020-01-23 13:00:00 7.6 15 Nordeste 24 Nordeste 0 -- -- 92
2020-01-23 12:00:00 7.6 12 Este 22 Este 0 -- -- 94
2020-01-23 11:00:00 6.9 12 Este 21 Este 0 -- -- 96
2020-01-23 10:00:00 6.6 12 Este 22 Nordeste 0.6 -- -- 96
2020-01-23 09:00:00 6.4 12 Nordeste 21 Nordeste 2 -- -- 96
2020-01-23 08:00:00 6.4 10 Nordeste 20 Nordeste 0.6 -- -- 96
2020-01-23 07:00:00 6.3 13 Nordeste 24 Nordeste 1.6 -- -- 96
2020-01-23 06:00:00 6.7 12 Nordeste 20 Nordeste 2.4 -- -- 95
2020-01-23 05:00:00 7.1 8 Nordeste 14 Este 0.8 -- -- 93
2020-01-23 04:00:00 7.9 6 Este 16 Nordeste 0.2 -- -- 86
2020-01-23 03:00:00 8.3 8 Nordeste 17 Este 0 -- -- 80
2020-01-23 02:00:00 8.6 10 Este 19 Este 0 -- -- 78
2020-01-23 01:00:00 8.7 12 Nordeste 19 Nordeste 0 -- -- 76
2020-01-23 00:00:00 9 9 Nordeste 18 Nordeste 0 -- -- 74
2020-01-22 23:00:00 9.3 8 Nordeste 21 Nordeste 0 -- -- 72
2020-01-22 22:00:00 9.4 9 Nordeste 19 Este 0 -- -- 72
2020-01-22 21:00:00 9.4 10 Este 19 Nordeste 0 -- -- 73
2020-01-22 20:00:00 9.6 11 Este 21 Nordeste 0 -- -- 73
2020-01-22 19:00:00 9.4 10 Nordeste 28 Nordeste 0 -- -- 73
2020-01-22 18:00:00 10.2 14 Nordeste 28 Nordeste 0 -- -- 71
2020-01-22 17:00:00 10.4 13 Nordeste 28 Nordeste 0 -- -- 70
2020-01-22 16:00:00 9.9 16 Este 34 Este 0 -- -- 73
2020-01-22 15:00:00 9.4 16 Este 32 Este 0 -- -- 76
2020-01-22 14:00:00 9.2 19 Nordeste 36 Nordeste 0 -- -- 75
2020-01-22 13:00:00 9.2 24 Este 50 Este 0 -- -- 75
2020-01-22 12:00:00 9 23 Nordeste 49 Nordeste 0 -- -- 75
2020-01-22 11:00:00 8.7 25 Nordeste 42 Este 0 -- -- 74
2020-01-22 10:00:00 7.9 17 Nordeste 30 Nordeste 0 -- -- 74
2020-01-22 09:00:00 7.5 14 Nordeste 23 Nordeste 0 -- -- 75
2020-01-22 08:00:00 7 10 Nordeste 19 Nordeste 0 -- -- 78
2020-01-22 07:00:00 6.4 8 Nordeste 13 Nordeste 0 -- -- 79
2020-01-22 06:00:00 6.2 10 Norte 17 Norte 0 -- -- 79
2020-01-22 05:00:00 6.3 12 Nordeste 19 Nordeste 0 -- -- 76
2020-01-22 04:00:00 5.9 5 Este 19 Nordeste 0 -- -- 77
2020-01-22 03:00:00 6.4 14 Nordeste 21 Nordeste 0 -- -- 74
2020-01-22 02:00:00 6.5 10 Nordeste 26 Nordeste 0 -- -- 74
2020-01-22 01:00:00 6.9 8 Nordeste 24 Nordeste 0 -- -- 75
2020-01-22 00:00:00 7.4 13 Nordeste 28 Nordeste 0 -- -- 72
2020-01-21 23:00:00 8 10 Nordeste 21 Nordeste 0 -- -- 69
2020-01-21 22:00:00 8.2 8 Nordeste 27 Nordeste 0 -- -- 67
2020-01-21 21:00:00 8.7 19 Nordeste 35 Nordeste 0 -- -- 64
2020-01-21 20:00:00 8.8 17 Nordeste 33 Norte 0 -- -- 63
2020-01-21 19:00:00 8.6 21 Nordeste 35 Nordeste 0 -- -- 62
2020-01-21 18:00:00 8.8 17 Nordeste 42 Nordeste 0 -- -- 61
2020-01-21 17:00:00 9 22 Nordeste 48 Nordeste 0 -- -- 61
2020-01-21 16:00:00 9.7 26 Nordeste 44 Nordeste 0 -- -- 57
2020-01-21 15:00:00 10.7 23 Nordeste 41 Norte 0 -- -- 53
2020-01-21 14:00:00 10.4 23 Nordeste 42 Nordeste 0 -- -- 53
2020-01-21 13:00:00 9.7 27 Norte 46 Norte 0 -- -- 57
2020-01-21 12:00:00 8.8 27 Nordeste 45 Nordeste 0 -- -- 56
2020-01-21 11:00:00 6.2 20 Norte 30 Norte 0 -- -- 64
2020-01-21 10:00:00 4.9 16 Norte 26 Norte 0 -- -- 67
2020-01-21 09:00:00 2.9 12 Norte 19 Norte 0 -- -- 74
2020-01-21 08:00:00 2.6 3 Noroeste 23 Norte 0 -- -- 72
2020-01-21 07:00:00 2.1 7 Norte 16 Norte 0 -- -- 76
2020-01-21 06:00:00 2.5 4 Noroeste 15 Nordeste 0 -- -- 75
2020-01-21 05:00:00 3.3 5 Norte 22 Nordeste 0 -- -- 72
2020-01-21 04:00:00 4.5 8 Nordeste 20 Norte 0 -- -- 66
2020-01-21 03:00:00 4.8 11 Nordeste 36 Nordeste 0 -- -- 64
2020-01-21 02:00:00 5.4 21 Nordeste 39 Norte 0 -- -- 60
2020-01-21 01:00:00 4.6 8 Nordeste 26 Nordeste 0 -- -- 60
2020-01-21 00:00:00 5.4 15 Nordeste 34 Nordeste 0 -- -- 57
2020-01-20 23:00:00 5.6 18 Nordeste 35 Nordeste 0 -- -- 54
2020-01-20 22:00:00 6 23 Nordeste 42 Nordeste 0 -- -- 51
2020-01-20 21:00:00 5.8 19 Nordeste 40 Nordeste 0 -- -- 51
2020-01-20 20:00:00 6 22 Nordeste 41 Nordeste 0 -- -- 49
2020-01-20 19:00:00 6.6 24 Nordeste 42 Nordeste 0 -- -- 46
2020-01-20 18:00:00 7 24 Nordeste 45 Nordeste 0 -- -- 45
2020-01-20 17:00:00 7.5 27 Nordeste 47 Nordeste 0 -- -- 45
2020-01-20 16:00:00 7.5 27 Nordeste 46 Norte 0 -- -- 45
2020-01-20 15:00:00 7.5 33 Nordeste 55 Nordeste 0 -- -- 42
2020-01-20 14:00:00 7.5 31 Nordeste 55 Nordeste 0 -- -- 39
2020-01-20 13:00:00 7.2 36 Nordeste 52 Nordeste 0 -- -- 40
2020-01-20 12:00:00 6.9 32 Nordeste 55 Nordeste 0 -- -- 39
2020-01-20 11:00:00 5.3 31 Nordeste 62 Norte 0 -- -- 45
2020-01-20 10:00:00 4.3 32 Nordeste 55 Nordeste 0 -- -- 47
2020-01-20 09:00:00 4 32 Nordeste 60 Nordeste 0 -- -- 46
2020-01-20 08:00:00 4.2 35 Nordeste 66 Nordeste 0 -- -- 45
2020-01-20 07:00:00 4.4 36 Nordeste 70 Norte 0 -- -- 44
2020-01-20 06:00:00 4.6 36 Nordeste 59 Norte 0 -- -- 44
2020-01-20 05:00:00 4.7 38 Norte 64 Norte 0 -- -- 45
2020-01-20 04:00:00 4.9 36 Norte 72 Norte 0 -- -- 46
2020-01-20 03:00:00 5 37 Nordeste 73 Nordeste 0 -- -- 46
2020-01-20 02:00:00 5.5 47 Nordeste 64 Nordeste 0 -- -- 44
2020-01-20 01:00:00 5.6 40 Nordeste 73 Nordeste 0 -- -- 44
2020-01-20 00:00:00 5.9 46 Nordeste 71 Norte 0 -- -- 43
2020-01-19 23:00:00 5.9 40 Norte 70 Nordeste 0 -- -- 43
2020-01-19 22:00:00 5.8 32 Norte 50 Norte 0 -- -- 43
2020-01-19 21:00:00 6.9 27 Norte 50 Norte 0 -- -- 41
2020-01-19 20:00:00 7.8 33 Norte 51 Norte 0 -- -- 41
2020-01-19 19:00:00 8.9 26 Norte 61 Norte 0 -- -- 42
2020-01-19 18:00:00 10.5 40 Norte 60 Norte 0 -- -- 39
2020-01-19 17:00:00 11.6 35 Norte 59 Norte 0 -- -- 41
2020-01-19 16:00:00 12.1 43 Norte 63 Norte 0 -- -- 37
2020-01-19 15:00:00 12.2 45 Norte 64 Norte 0 -- -- 34
2020-01-19 14:00:00 12.2 45 Norte 65 Norte 0 -- -- 41
2020-01-19 13:00:00 11.6 33 Norte 69 Norte 0 -- -- 54
2020-01-19 12:00:00 10.8 38 Norte 59 Norte 0 -- -- 63
2020-01-19 11:00:00 10.1 25 Norte 40 Noroeste 0 -- -- 68
2020-01-19 10:00:00 8.8 23 Norte 33 Norte 0 -- -- 74
2020-01-19 09:00:00 7.1 5 Norte 18 Norte 0 -- -- 80
2020-01-19 08:00:00 7.1 9 Norte 13 Norte 0 -- -- 81
2020-01-19 07:00:00 7.4 3 Nordeste 13 Noroeste 0 -- -- 82
2020-01-19 06:00:00 6.7 4 Noroeste 18 Oeste 0 -- -- 88
2020-01-19 05:00:00 6.6 3 Sudoeste 11 Este 0 -- -- 89
2020-01-19 04:00:00 6.7 4 Oeste 18 Oeste 0 -- -- 87
2020-01-19 03:00:00 6.7 14 Sudoeste 22 Sudoeste 0 -- -- 87
2020-01-19 02:00:00 7.8 13 Sudoeste 18 Sudoeste 0 -- -- 83
2020-01-19 01:00:00 7.7 12 Sudoeste 15 Sudoeste 0 -- -- 81
2020-01-19 00:00:00 8.2 13 Sudoeste 29 Oeste 0 -- -- 80
2020-01-18 23:00:00 9.5 17 Oeste 35 Oeste 0 -- -- 71
2020-01-18 22:00:00 10.1 17 Sudoeste 28 Sudoeste 0 -- -- 83
2020-01-18 21:00:00 11 17 Sudoeste 33 Sudoeste 0 -- -- 79
2020-01-18 20:00:00 11.7 24 Sudoeste 40 Sudoeste 0 -- -- 81
2020-01-18 19:00:00 12.4 20 Sudoeste 30 Sudoeste 0 -- -- 86
2020-01-18 18:00:00 13.4 14 Sudoeste 26 Sudoeste 0 -- -- 90
2020-01-18 17:00:00 12.9 16 Sudoeste 29 Sudoeste 0 -- -- 92
2020-01-18 16:00:00 13 10 Sudoeste 19 Sudoeste 0 -- -- 97
2020-01-18 15:00:00 11.5 4 Este 13 Este 0.2 -- -- 97
2020-01-18 14:00:00 11.2 7 Este 21 Este 0 -- -- 97
2020-01-18 13:00:00 10.5 13 Este 19 Este 0.2 -- -- 98
2020-01-18 12:00:00 10 12 Este 22 Este 0 -- -- 98
2020-01-18 11:00:00 9.5 15 Este 23 Este 0.6 -- -- 98
2020-01-18 10:00:00 9.3 11 Este 24 Este 1.4 -- -- 98
2020-01-18 09:00:00 9.1 10 Este 28 Este 1.6 -- -- 98
2020-01-18 08:00:00 8.8 21 Este 29 Este 2 -- -- 97
2020-01-18 07:00:00 8.5 10 Este 20 Este 1.6 -- -- 97
2020-01-18 06:00:00 8.6 10 Este 15 Este 1.4 -- -- 96
2020-01-18 05:00:00 8.5 3 Este 17 Este 0.6 -- -- 96
2020-01-18 04:00:00 8.2 3 Nordeste 12 Este 1.2 -- -- 94
2020-01-18 03:00:00 8.4 5 Este 8 Este 0.2 -- -- 91
2020-01-18 02:00:00 8.5 0 Calma 11 Sudeste 0 -- -- 88
2020-01-18 01:00:00 8.7 8 Sudeste 12 Sudeste 0 -- -- 87
2020-01-18 00:00:00 9.3 4 Este 6 Sudoeste 0 -- -- 82
2020-01-17 23:00:00 9.3 4 Sudoeste 11 Sur 0 -- -- 81
2020-01-17 22:00:00 9.2 7 Sur 8 Sur 0 -- -- 81
2020-01-17 21:00:00 10.1 0 Calma 7 Sudoeste 0 -- -- 76
2020-01-17 20:00:00 10.4 5 Sudoeste 9 Sudoeste 0 -- -- 74
2020-01-17 19:00:00 10.6 7 Sur 9 Sudoeste 0 -- -- 71
2020-01-17 18:00:00 11.4 7 Sur 11 Sudoeste 0 -- -- 70
2020-01-17 17:00:00 12.9 6 Sudoeste 12 Sudoeste 0 -- -- 67
2020-01-17 16:00:00 14.1 5 Oeste 15 Oeste 0 -- -- 63
2020-01-17 15:00:00 14 7 Sudoeste 13 Sudoeste 0 -- -- 67
2020-01-17 14:00:00 12.6 7 Oeste 15 Sudoeste 0 -- -- 74
2020-01-17 13:00:00 11.4 7 Sudoeste 12 Sudoeste 0 -- -- 91
2020-01-17 12:00:00 10.9 2 Oeste 13 Sudoeste 0 -- -- 94
2020-01-17 11:00:00 10.8 9 Sudoeste 14 Sudoeste 0 -- -- 98
2020-01-17 10:00:00 9.4 7 Sudoeste 18 Sur 0.2 -- -- 98
2020-01-17 09:00:00 8.8 11 Sudeste 18 Sur 0 -- -- 97
2020-01-17 08:00:00 8.8 6 Sur 15 Sur 0 -- -- 98
2020-01-17 07:00:00 8.5 12 Sur 15 Sudeste 0 -- -- 98
2020-01-17 06:00:00 8.7 10 Sur 13 Sur 0 -- -- 98
2020-01-17 05:00:00 8.7 7 Sur 15 Sur 0 -- -- 98
2020-01-17 04:00:00 9 11 Sudoeste 18 Sudoeste 0 -- -- 97
2020-01-17 03:00:00 9 5 Sur 13 Sudoeste 0 -- -- 98
2020-01-17 02:00:00 8.4 2 Nordeste 4 Norte 0 -- -- 97
2020-01-17 01:00:00 7.8 3 Norte 9 Sur 0 -- -- 95
2020-01-17 00:00:00 9 9 Sur 21 Sur 0 -- -- 93
2020-01-16 23:00:00 9.6 17 Sur 28 Sudoeste 0.2 -- -- 92
2020-01-16 22:00:00 10.4 14 Sur 23 Sur 0 -- -- 90
2020-01-16 21:00:00 11.1 12 Sudoeste 33 Sur 1.4 -- -- 89
2020-01-16 20:00:00 12.7 19 Sudeste 28 Sur 0 -- -- 73
2020-01-16 19:00:00 12.9 18 Sudeste 27 Sudeste 0 -- -- 72
2020-01-16 18:00:00 13.4 18 Sur 32 Sur 0 -- -- 68
2020-01-16 17:00:00 14.2 18 Sudeste 34 Sudeste 0 -- -- 67
2020-01-16 16:00:00 14 22 Sur 36 Sudeste 0 -- -- 71
2020-01-16 15:00:00 13.9 24 Sur 36 Sur 0 -- -- 71
2020-01-16 14:00:00 13.6 22 Sur 35 Sur 0 -- -- 73
2020-01-16 13:00:00 13.2 19 Sur 33 Sur 0.2 -- -- 77
2020-01-16 12:00:00 12.7 23 Sur 36 Sudeste 0 -- -- 80
2020-01-16 11:00:00 11.7 14 Sudeste 22 Sur 0 -- -- 88
2020-01-16 10:00:00 10.6 15 Sudeste 29 Sur 0 -- -- 92
2020-01-16 09:00:00 9.8 6 Sudeste 19 Sudeste 0 -- -- 94
2020-01-16 08:00:00 10.6 14 Sudeste 24 Sudeste 0 -- -- 92
2020-01-16 07:00:00 11.4 14 Sudeste 25 Sur 0 -- -- 92
2020-01-16 06:00:00 11.1 10 Sudeste 18 Sudeste 0 -- -- 96
2020-01-16 05:00:00 10.4 10 Este 13 Este 0 -- -- 96
2020-01-16 04:00:00 10 9 Este 17 Este 0 -- -- 96
2020-01-16 03:00:00 10.1 11 Este 17 Este 0 -- -- 95
2020-01-16 02:00:00 10.4 12 Este 18 Este 0 -- -- 95
2020-01-16 01:00:00 10.3 9 Este 14 Este 0 -- -- 96
2020-01-16 00:00:00 9.6 7 Este 12 Este 0 -- -- 95
2020-01-15 23:00:00 9.8 4 Este 15 Este 0 -- -- 95
2020-01-15 22:00:00 10 13 Este 21 Este 0 -- -- 94
2020-01-15 21:00:00 10.1 15 Este 24 Este 0 -- -- 93
2020-01-15 20:00:00 10.5 17 Este 27 Este 0 -- -- 92
2020-01-15 19:00:00 10.9 17 Este 24 Este 0 -- -- 92
2020-01-15 18:00:00 11.3 15 Este 23 Este 0 -- -- 92
2020-01-15 17:00:00 12 14 Este 23 Este 0 -- -- 92
2020-01-15 16:00:00 12.8 12 Este 21 Este 0 -- -- 93
2020-01-15 15:00:00 12.5 12 Este 24 Sudeste 0 -- -- 93
2020-01-15 14:00:00 11.5 14 Sudeste 23 Sudeste 1 -- -- 95
2020-01-15 13:00:00 10.8 11 Sur 25 Sudeste 1 -- -- 95
2020-01-15 12:00:00 10.5 13 Sur 37 Sur 1.8 -- -- 94
2020-01-15 11:00:00 10.5 23 Sudeste 35 Sudeste 0 -- -- 91
2020-01-15 10:00:00 9.6 20 Sudeste 38 Sudeste 0 -- -- 92
2020-01-15 09:00:00 9.1 19 Sudeste 36 Sudeste 0 -- -- 90
2020-01-15 08:00:00 8.8 22 Sudeste 41 Sudeste 0 -- -- 90
2020-01-15 07:00:00 9.1 21 Sudeste 34 Sudeste 0 -- -- 85
2020-01-15 06:00:00 8.9 19 Sudeste 36 Sudeste 0 -- -- 85
2020-01-15 05:00:00 9.3 21 Sudeste 39 Sudeste 0 -- -- 83
2020-01-15 04:00:00 9.3 23 Sudeste 36 Sur 0 -- -- 86
2020-01-15 03:00:00 9.1 22 Sudeste 33 Sudeste 0 -- -- 87
2020-01-15 02:00:00 9.6 23 Sudeste 45 Sudeste 0 -- -- 87
2020-01-15 01:00:00 9.9 26 Sur 40 Sur 0 -- -- 86
2020-01-15 00:00:00 9.9 22 Sur 41 Sur 0 -- -- 87
2020-01-14 23:00:00 9.9 22 Sur 36 Sur 0 -- -- 88
2020-01-14 22:00:00 9.4 15 Sudeste 25 Sudeste 0 -- -- 90
2020-01-14 21:00:00 8.7 11 Sudeste 17 Sudeste 0 -- -- 94
2020-01-14 20:00:00 8.3 10 Este 16 Este 0 -- -- 95
2020-01-14 19:00:00 8.2 7 Sudeste 23 Sudeste 0.2 -- -- 95
2020-01-14 18:00:00 8.6 14 Sudeste 27 Sudeste 0 -- -- 91
2020-01-14 17:00:00 9.7 14 Sur 25 Sur 0 -- -- 78
2020-01-14 16:00:00 9.3 5 Nordeste 14 Este 0 -- -- 79
2020-01-14 15:00:00 9.8 10 Este 18 Este 0 -- -- 76
2020-01-14 14:00:00 8.9 10 Este 18 Este 0 -- -- 79
2020-01-14 13:00:00 6.7 6 Este 12 Nordeste 0 -- -- 85
2020-01-14 12:00:00 5.8 7 Este 12 Este 0 -- -- 89
2020-01-14 11:00:00 5.5 8 Este 13 Este 0 -- -- 86
2020-01-14 10:00:00 5 5 Este 11 Nordeste 0 -- -- 87
2020-01-14 09:00:00 4.7 3 Nordeste 14 Este 0 -- -- 88
2020-01-14 08:00:00 4.5 5 Este 14 Este 0 -- -- 89
2020-01-14 07:00:00 4.5 5 Este 9 Este 0 -- -- 89
2020-01-14 06:00:00 4.1 3 Nordeste 6 Nordeste 0 -- -- 91
2020-01-14 05:00:00 4.4 0 Calma 14 Este 0 -- -- 90
2020-01-14 04:00:00 4.3 7 Este 15 Este 0 -- -- 90
2020-01-14 03:00:00 3.8 10 Este 15 Este 0 -- -- 91
2020-01-14 02:00:00 3.9 3 Este 8 Sudeste 0 -- -- 91
2020-01-14 01:00:00 3.2 0 Calma 9 Este 0 -- -- 86
2020-01-14 00:00:00 4.8 4 Este 8 Este 0 -- -- 85
2020-01-13 23:00:00 5 0 Calma 5 Noroeste 0 -- -- 83
2020-01-13 22:00:00 5.6 2 Sur 8 Sudeste 0 -- -- 80
2020-01-13 21:00:00 6.2 8 Sudeste 9 Este 0 -- -- 77
2020-01-13 20:00:00 7 2 Este 4 Nordeste 0 -- -- 74
2020-01-13 19:00:00 7.9 2 Sudeste 7 Sur 0 -- -- 70
2020-01-13 18:00:00 10.3 4 Sur 12 Sur 0 -- -- 63
2020-01-13 17:00:00 11.4 5 Sur 9 Sudeste 0 -- -- 59
2020-01-13 16:00:00 10.8 8 Sudeste 15 Sudeste 0 -- -- 59
2020-01-13 15:00:00 10.4 7 Sudeste 13 Sudeste 0 -- -- 65
2020-01-13 14:00:00 9.2 4 Sudeste 8 Este 0 -- -- 69
2020-01-13 13:00:00 7.9 3 Este 10 Este 0 -- -- 76
2020-01-13 12:00:00 5.7 4 Este 9 Este 0 -- -- 83
2020-01-13 11:00:00 3.5 5 Nordeste 11 Este 0 -- -- 92
2020-01-13 10:00:00 2 7 Este 9 Este 0 -- -- 93
2020-01-13 09:00:00 1.5 4 Nordeste 8 Este 0 -- -- 95
2020-01-13 08:00:00 1.1 5 Este 10 Este 0 -- -- 94
2020-01-13 07:00:00 1.1 4 Este 9 Este 0 -- -- 94
2020-01-13 06:00:00 1.2 6 Este 9 Este 0 -- -- 94
2020-01-13 05:00:00 1.6 5 Nordeste 7 Nordeste 0 -- -- 94
2020-01-13 04:00:00 1.5 0 Calma 7 Este 0 -- -- 91
2020-01-13 03:00:00 2.6 4 Nordeste 8 Este 0 -- -- 92
2020-01-13 02:00:00 3.2 4 Este 9 Este 0 -- -- 88
2020-01-13 01:00:00 3.8 0 Calma 2 Noroeste 0 -- -- 85
2020-01-13 00:00:00 4.6 0 Calma 4 Este 0 -- -- 81
2020-01-12 23:00:00 5.7 0 Calma -- -- 0 -- -- 76
2020-01-12 22:00:00 6 0 Calma 4 Norte 0 -- -- 76
2020-01-12 21:00:00 8 0 Calma 3 Sudeste 0 -- -- 67
2020-01-12 20:00:00 8.3 0 Calma 4 Sudeste 0 -- -- 65
2020-01-12 19:00:00 9.2 3 Sudeste 5 Sur 0 -- -- 62
2020-01-12 18:00:00 11.6 5 Sur 9 Sudoeste 0 -- -- 55
2020-01-12 17:00:00 13 4 Sudoeste 9 Este 0 -- -- 54
2020-01-12 16:00:00 12.8 5 Sudeste 9 Sur 0 -- -- 56
2020-01-12 15:00:00 12.1 4 Sur 11 Sudeste 0 -- -- 59
2020-01-12 14:00:00 10.4 4 Sur 9 Este 0 -- -- 63
2020-01-12 13:00:00 9 4 Sudeste 9 Sudeste 0 -- -- 68
2020-01-12 12:00:00 7 3 Sudeste 7 Sudeste 0 -- -- 77
2020-01-12 11:00:00 2.2 0 Calma 3 Oeste 0 -- -- 91
2020-01-12 10:00:00 0.9 0 Calma 4 Este 0 -- -- 91
2020-01-12 09:00:00 -0.3 0 Calma 2 Sudeste 0 -- -- 93
2020-01-12 08:00:00 -0.1 0 Calma 2 Noroeste 0 -- -- 91
2020-01-12 07:00:00 0.8 0 Calma 0 Calma 0 -- -- 93
2020-01-12 06:00:00 0.4 0 Calma 6 Este 0 -- -- 90
2020-01-12 05:00:00 1.5 0 Calma 7 Nordeste 0 -- -- 89
2020-01-12 04:00:00 1.1 0 Calma 2 Este 0 -- -- 91
2020-01-12 03:00:00 1.1 2 Noroeste 3 Noroeste -- -- -- 88
2020-01-12 02:00:00 2 0 Calma 4 Noroeste 0 -- -- 86
2020-01-12 01:00:00 2.8 3 Noroeste -- -- 0 -- -- 83
2020-01-12 00:00:00 4.2 0 Calma 2 Oeste 0 -- -- 77
2020-01-11 23:00:00 4.7 0 Calma 3 Noroeste 0 -- -- 73
2020-01-11 22:00:00 5.5 0 Calma 6 Este 0 -- -- 68
2020-01-11 21:00:00 7.8 6 Este 7 Este 0 -- -- 58
2020-01-11 20:00:00 7.8 2 Norte 8 Nordeste 0 -- -- 60
2020-01-11 19:00:00 8.7 3 Nordeste 8 Nordeste 0 -- -- 55
2020-01-11 18:00:00 10.2 6 Nordeste 10 Norte 0 -- -- 53
2020-01-11 17:00:00 11.8 4 Norte 14 Nordeste 0 -- -- 48
2020-01-11 16:00:00 12.2 7 Nordeste 17 Este 0 -- -- 48
2020-01-11 15:00:00 12.2 12 Este 21 Sudeste 0 -- -- 49
2020-01-11 14:00:00 12.1 10 Este 17 Este 0 -- -- 51
2020-01-11 13:00:00 10.4 9 Este 17 Este 0 -- -- 58
2020-01-11 12:00:00 9.1 4 Nordeste 13 Nordeste 0 -- -- 60
2020-01-11 11:00:00 6.8 3 Nordeste 8 Nordeste 0 -- -- 72
2020-01-11 10:00:00 4.2 2 Este 4 Nordeste 0 -- -- 79
2020-01-11 09:00:00 1.5 0 Calma 4 Este 0 -- -- 83
2020-01-11 08:00:00 2.7 3 Nordeste 9 Nordeste 0 -- -- 79
2020-01-11 07:00:00 3.2 3 Este 5 Nordeste 0 -- -- 79
2020-01-11 06:00:00 2.7 0 Calma 3 Noroeste 0 -- -- 78
2020-01-11 05:00:00 4.3 2 Oeste 3 Oeste 0 -- -- 73
2020-01-11 04:00:00 5.7 0 Calma 7 Nordeste 0 -- -- 68
2020-01-11 03:00:00 6.1 3 Nordeste 8 Nordeste 0 -- -- 66
2020-01-11 02:00:00 6 3 Norte 12 Nordeste 0 -- -- 64
2020-01-11 01:00:00 6.7 8 Nordeste 13 Nordeste 0 -- -- 63
2020-01-11 00:00:00 6.9 9 Nordeste 19 Nordeste 0 -- -- 64
2020-01-10 23:00:00 6.5 11 Norte 18 Nordeste 0 -- -- 63
2020-01-10 22:00:00 7.7 8 Nordeste 21 Nordeste 0 -- -- 58
2020-01-10 21:00:00 8.2 15 Nordeste 22 Norte 0 -- -- 57
2020-01-10 20:00:00 8.5 7 Nordeste 22 Norte 0 -- -- 58
2020-01-10 19:00:00 9.3 10 Norte 17 Norte 0 -- -- 55
2020-01-10 18:00:00 11.6 7 Nordeste 18 Nordeste 0 -- -- 45
2020-01-10 17:00:00 12.6 10 Nordeste 19 Norte 0 -- -- 43
2020-01-10 16:00:00 12.9 13 Nordeste 31 Nordeste 0 -- -- 43
2020-01-10 15:00:00 12.9 15 Nordeste 33 Nordeste 0 -- -- 44
2020-01-10 14:00:00 12.4 14 Norte 33 Nordeste 0 -- -- 52
2020-01-10 13:00:00 10.9 17 Norte 28 Noroeste 0 -- -- 57
2020-01-10 12:00:00 9.6 15 Norte 29 Norte 0 -- -- 60
2020-01-10 11:00:00 8.1 19 Norte 25 Norte 0 -- -- 67
2020-01-10 10:00:00 6 14 Norte 23 Noroeste 0 -- -- 77
2020-01-10 09:00:00 5.2 18 Norte 27 Norte 0 -- -- 79
2020-01-10 08:00:00 5.1 18 Norte 24 Norte 0 -- -- 77
2020-01-10 07:00:00 4.4 8 Noroeste 14 Norte 0 -- -- 76
2020-01-10 06:00:00 5.7 0 Calma 6 Noroeste 0 -- -- 71
2020-01-10 05:00:00 6.1 2 Oeste 9 Noroeste 0 -- -- 70
2020-01-10 04:00:00 6.2 2 Norte 13 Noroeste 0 -- -- 73
2020-01-10 03:00:00 6.5 3 Norte 19 Noroeste 0 -- -- 76
2020-01-10 02:00:00 7.3 12 Noroeste 31 Noroeste 0 -- -- 75
2020-01-10 01:00:00 7.9 18 Noroeste 30 Noroeste 0 -- -- 74
2020-01-10 00:00:00 7.9 12 Noroeste 22 Noroeste 0 -- -- 80
2020-01-09 23:00:00 8.6 6 Oeste 14 Noroeste 0 -- -- 88
2020-01-09 22:00:00 8.1 3 Sudoeste 12 Norte 0 -- -- 88
2020-01-09 21:00:00 9.1 3 Sudoeste 6 Sudoeste 0 -- -- 84
2020-01-09 20:00:00 10.4 3 Este 9 Sudeste 0 -- -- 76
2020-01-09 19:00:00 10.6 6 Este 13 Sur 0 -- -- 76
2020-01-09 18:00:00 12.8 10 Sur 14 Sudoeste 0 -- -- 67
2020-01-09 17:00:00 14.2 8 Sudoeste 15 Sudoeste 0 -- -- 64
2020-01-09 16:00:00 14.5 8 Sudoeste 16 Sur 0 -- -- 61
2020-01-09 15:00:00 13.6 9 Sur 16 Sudoeste 0 -- -- 64
2020-01-09 14:00:00 12.8 5 Sudoeste 10 Sudoeste 0 -- -- 67
2020-01-09 13:00:00 11.3 3 Sudoeste 8 Sudeste 0 -- -- 75
2020-01-09 12:00:00 9.3 2 Sudeste 6 Noroeste 0 -- -- 79
2020-01-09 11:00:00 5.9 0 Calma 5 Oeste 0 -- -- 88
2020-01-09 10:00:00 3.5 0 Calma 10 Sudeste 0 -- -- 94
2020-01-09 09:00:00 1.6 0 Calma 8 Noroeste 0 -- -- 95
2020-01-09 08:00:00 2.4 4 Nordeste 10 Este 0 -- -- 94
2020-01-09 07:00:00 1.5 0 Calma 7 Oeste 0 -- -- 95
2020-01-09 06:00:00 2.1 0 Calma 4 Noroeste 0 -- -- 93
2020-01-09 05:00:00 3 0 Calma 4 Oeste 0 -- -- 93
2020-01-09 04:00:00 3.2 2 Oeste 4 Oeste 0 -- -- 94
2020-01-09 03:00:00 3.8 0 Calma 13 Este 0 -- -- 91
2020-01-09 02:00:00 4.4 0 Calma 5 Nordeste 0 -- -- 91
2020-01-09 01:00:00 4.6 0 Calma 6 Noroeste 0 -- -- 92
2020-01-09 00:00:00 5 3 Noroeste 5 Noroeste 0 -- -- 89
2020-01-08 23:00:00 6 0 Calma 3 Norte 0 -- -- 89
2020-01-08 22:00:00 6.4 0 Calma 3 Norte 0 -- -- 90
2020-01-08 21:00:00 6.6 0 Calma 6 Sur 0 -- -- 86
2020-01-08 20:00:00 8.3 4 Sur 9 Sudeste 0 -- -- 79
2020-01-08 19:00:00 8.8 7 Sudeste 9 Sudeste 0 -- -- 79
2020-01-08 18:00:00 11.2 6 Sudeste 8 Sudeste 0 -- -- 71
2020-01-08 17:00:00 12.4 0 Calma 5 Norte 0 -- -- 65
2020-01-08 16:00:00 12.7 0 Calma 6 Nordeste 0 -- -- 66
2020-01-08 15:00:00 11.5 0 Calma 5 Norte 0 -- -- 72
2020-01-08 14:00:00 9.9 3 Nordeste 8 Nordeste 0 -- -- 76
2020-01-08 13:00:00 8.2 2 Nordeste 8 Nordeste 0 -- -- 83
2020-01-08 12:00:00 6.2 7 Nordeste 12 Nordeste 0 -- -- 88
2020-01-08 11:00:00 2.9 0 Calma 2 Este 0 -- -- 96
2020-01-08 10:00:00 -0.5 0 Calma 3 Este 0 -- -- 98
2020-01-08 09:00:00 -0.2 0 Calma 4 Este 0 -- -- 97
2020-01-08 08:00:00 0.3 0 Calma 2 Nordeste 0 -- -- 96
2020-01-08 07:00:00 0.3 0 Calma 3 Norte 0 -- -- 96
2020-01-08 06:00:00 0.9 0 Calma 5 Sudeste 0 -- -- 96
2020-01-08 05:00:00 2 0 Calma 2 Este 0 -- -- 95
2020-01-08 04:00:00 2.5 0 Calma 2 Norte 0 -- -- 94
2020-01-08 03:00:00 3.3 0 Calma 2 Noroeste 0 -- -- 94
2020-01-08 02:00:00 3.7 0 Calma 3 Este 0 -- -- 94
2020-01-08 01:00:00 4.2 0 Calma 3 Noroeste 0 -- -- 93
2020-01-08 00:00:00 5.1 3 Norte 5 Sudeste 0 -- -- 87
2020-01-07 23:00:00 6.7 0 Calma 4 Sudoeste 0 -- -- 79
2020-01-07 22:00:00 7.8 2 Sur 4 Oeste 0 -- -- 83
2020-01-07 21:00:00 8.1 0 Calma 6 Sudoeste 0 -- -- 79
2020-01-07 20:00:00 9.7 3 Sudoeste 11 Sudoeste 0 -- -- 72
2020-01-07 19:00:00 10.3 7 Sudoeste 10 Sudoeste 0 -- -- 69
2020-01-07 18:00:00 12.6 6 Sur 8 Sur 0 -- -- 62
2020-01-07 17:00:00 14.8 2 Sur 4 Oeste 0 -- -- 57
2020-01-07 16:00:00 14 3 Oeste 7 Oeste 0 -- -- 58
2020-01-07 15:00:00 13.3 3 Sudeste 9 Este 0 -- -- 64
2020-01-07 14:00:00 11.8 3 Este 7 Sur 0 -- -- 65
2020-01-07 13:00:00 10.3 3 Este 7 Nordeste 0 -- -- 69
2020-01-07 12:00:00 8.7 3 Este 6 Sur 0 -- -- 80
2020-01-07 11:00:00 5.5 0 Calma 3 Nordeste 0 -- -- 93
2020-01-07 10:00:00 3.4 4 Este 6 Este 0 -- -- 97
2020-01-07 09:00:00 1.6 0 Calma 4 Nordeste 0 -- -- 95
2020-01-07 08:00:00 1.8 0 Calma 8 Este 0 -- -- 96
2020-01-07 07:00:00 1.6 6 Este 9 Nordeste 0 -- -- 95
2020-01-07 06:00:00 2.6 4 Este 8 Este 0 -- -- 95
2020-01-07 05:00:00 2.3 3 Nordeste 5 Nordeste 0 -- -- 96
2020-01-07 04:00:00 3.3 2 Nordeste 6 Este 0 -- -- 96
2020-01-07 03:00:00 2.4 2 Norte 4 Norte 0 -- -- 94
2020-01-07 02:00:00 4.2 0 Calma 3 Noroeste 0 -- -- 94
2020-01-07 01:00:00 4.2 3 Norte 3 Norte 0 -- -- 90
2020-01-07 00:00:00 5.4 2 Sudoeste 4 Oeste 0 -- -- 92
2020-01-06 23:00:00 5.5 2 Norte 4 Noroeste 0 -- -- 85
2020-01-06 22:00:00 6.5 0 Calma 2 Noroeste 0 -- -- 84
2020-01-06 21:00:00 7.3 2 Noroeste 7 Sudoeste 0 -- -- 78
2020-01-06 20:00:00 9.5 5 Sudoeste 8 Sur 0 -- -- 70
2020-01-06 19:00:00 9.7 5 Sudoeste 8 Sudoeste 0 -- -- 70
2020-01-06 18:00:00 12.4 4 Sur 5 Sudoeste 0 -- -- 62
2020-01-06 17:00:00 12.8 3 Sudeste 5 Sudoeste 0 -- -- 59
2020-01-06 16:00:00 12.8 0 Calma 6 Nordeste 0 -- -- 62
2020-01-06 15:00:00 12.1 0 Calma 7 Noroeste 0 -- -- 60
2020-01-06 14:00:00 11.7 3 Este 7 Nordeste 0 -- -- 65
2020-01-06 13:00:00 9.9 5 Este 14 Este 0 -- -- 73
2020-01-06 12:00:00 7.2 5 Nordeste 10 Nordeste 0 -- -- 80
2020-01-06 11:00:00 5.3 4 Este 6 Este 0 -- -- 87
2020-01-06 10:00:00 1.9 2 Norte 5 Sudeste 0 -- -- 91